Terminal Aerodrome Forecast
Issued by NWS Rapid City, SD

Home | Current Version | Previous Version | Text Only | Print | Product List | Glossary On
Versions: 1 2 3 4 5 6 7 8 9 10 11 12 13 14 15 16 17 18
000
FTUS43 KUNR 200521
TAFRAP
TAF
KRAP 200521Z 2006/2106 28006KT P6SM SCT200
     FM201700 32018G28KT P6SM BKN120
     FM210200 35015KT P6SM SCT030 BKN080=

USA.gov is the U.S. government's official web portal to all federal, state and local government web resources and services.